Aérodrome :
LOGIN :

S'inscrire | Disclaimer

   EN    FR    IT 

 










Légende :    VFR   VFR Marginal   IFR   IFR Intensif   IFR Très Intensif
Visi : 
Plafond : 
>= 8 km
>= 3000ft
5 à 8 km
1000 à 3000 ft
1500m à 5 km
500 à 1000 ft
800 à 1500m
200 à 500 ft
< 800m
< 200 ft
Symboles :   Orages  Brouillard  Fortes neiges  Fortes précipitations  Vent > 20 kt
SIGMETs :   Divers  Orages  Givrage  Turbulence  Onde Orograph.  Cendres Volcan.







- Altitude de l'aérodrome : 755 ft
- Code IATA : DRS


EDDC - Dresden Klotzsche

DERNIER METAR :
  • 181820Z 17005KT CAVOK M03/M04 Q1027 R04/D NOSIG

METARs EXPIRÉS :
  • 181750Z 19004KT CAVOK M03/M03 Q1027 R04/29//95 NOSIG
  • 181720Z 18006KT CAVOK M03/M04 Q1026 R04/29//95 NOSIG
  • 181650Z 16003KT CAVOK M03/M04 Q1026 R04/29//95 NOSIG
  • 181620Z 19003KT 170V230 CAVOK M02/M03 Q1026 R04/29//95 NOSIG
  • 181550Z 15004KT CAVOK M02/M03 Q1025 R04/29//95 NOSIG

TAF TAF EDDC
Valide du 18 à 18h jusqu'au 19 à 18h UTC


181700Z 1818/1918 18005KT 9000 BKN030
BECMG 1909/1911 25006KT
BECMG 1911/1914 2500 -SN BKN008
TEMPO 1911/1918 1400 -SNRA BKN003
Pas de NOTAMs connus pour ce terrain.



MET'MAP, la Météo Aéronautique d'un coup d'oeil ! - Copyright ORBIFLY Décembre 2007 - Disclaimer

ORBIFLY MET'MAP TEAM :

Programmation & Développement : Alexandra Zaïnal
Conception & Développement : Baudouin d'Aumeries
Co-Programmation & Développement : Marc-Olivier Méhu
Soutien technique & logistique : Manuel Goepfert

Contact : metmap@orbifly.com




SOURCES & CREDITS :

   NOAA